Orange City, FL

2:13 PM EST on November 21, 2017 (GMT -0500)
Orange City Fire Dept. | | Change Station
Active Advisory: Hydrologic Statement

Elev 56 ft 28.95 °N, 81.30 °W | Updated 11 seconds ago

Rain
Rain
69.1 °F
Feels Like 69.1 °F
N
1.8
Wind Variable Wind from ESE
Gusts 2.5 mph

Today
High -- | Low -- °F
--% Chance of Precip.
Yesterday
High -- | Low -- °F
Precip. -- in
Pressure 29.98 in
Visibility 10.0 miles
Clouds Mostly Cloudy 1100 ft
Mostly Cloudy 3500 ft
Overcast 12000 ft
Dew Point 66 °F
Humidity 90%
Rainfall 0.00 in
Snow Depth Not available.
6:53 AM 5:28 PM
Waxing Crescent, 10% visible
METAR KDED 211855Z AUTO 16009KT 10SM BKN011 BKN035 OVC120 21/19 A2998 RMK AO2 LTG DSNT W
Pressure 29.98 in
Visibility 10.0 miles
Clouds Mostly Cloudy 1100 ft
Mostly Cloudy 3500 ft
Overcast 12000 ft
Dew Point 66 °F
Humidity 90%
Rainfall 0.00 in
Snow Depth Not available.
6:53 AM 5:28 PM
Waxing Crescent, 10% visible
METAR KDED 211855Z AUTO 16009KT 10SM BKN011 BKN035 OVC120 21/19 A2998 RMK AO2 LTG DSNT W

Get Your Daily Forecast Email!

Thanks for signing up!

Be on the lookout for a verification email in your inbox.

You'll start receiving severe weather alerts in your inbox..

×

10-Day Weather Forecast

Almanac

Astronomy

Nov. 21, 2017 Rise Set
Actual Time
Civil Twilight
Nautical Twilight
Astronomical Twilight
Moon
Length of Visible Light
Length of Day
Tomorrow will be .
, % of the Moon is Illuminated

Today's Extremes

State Highs State Lows

Community

WunderPhotos

Category 6

Welcome to Category 6. This is the collective home for Weather Underground's featured writeups by Dr. Jeff Masters (right), Bob Henson (left), Chris Burt, and other regular contributors.

Nearby

Air Quality

  Air Quality AQ Index Pollutant
Not available.

Snow Depth

Station Depth Elevation

Earthquake Activity

City Distance Mag. Time & Date
Minimum magnitude displayed is 2.5.

Coastal Water Temperatures

Place Temperature

Stations

Nearby Weather Stations

Station Location Temp. Windchill Dew Point Humidity Wind Precip. Elev Updated Type
                   

Watches & Warnings

Hydrologic Statement
Issued: 10:52 AM EST Nov. 21, 2017 – National Weather Service



             fld observed forecast 7 am EST/8 am EDT
location stg stg day time Wed Thu Fri Sat sun

St. Johns River
Astor 2.8 2.7 Tue 10 am 2.7 2.6 2.6 2.5 2.5



Lat... Lon 2908 8150 2932 8169 2935 8157 2910 8142



Glitto